Time;durP1;ratioP1;P1;durP2;ratioP2;P2;SDS_P1;SDS_P2;PMS_P1;PMS_P2;Temp;Humidity;BMP_temperature;BMP_pressure;BME280_temperature;BME280_humidity;BME280_pressure;Samples;Min_cycle;Max_cycle;Signal;HPM_P1;HPM_P2
2022/08/31 00:06:03;;;;;;;;;6.75;6.00;;;;;22.07;47.44;101598.63;5056351;28;45761;-80
2022/08/31 00:08:29;;;;;;;;;6.50;6.50;;;;;21.98;47.34;101584.16;5038275;28;45297;-80
2022/08/31 00:10:55;;;;;;;;;4.25;2.75;;;;;21.98;47.28;101589.44;5056616;28;45344;-80
2022/08/31 00:13:21;;;;;;;;;6.00;6.00;;;;;22.01;47.68;101591.06;5038542;28;45338;-81
2022/08/31 00:15:47;;;;;;;;;8.75;6.00;;;;;21.98;47.73;101581.50;5037754;28;46300;-81
2022/08/31 00:18:13;;;;;;;;;4.25;4.00;;;;;21.96;47.31;101579.91;5056224;28;45239;-80
2022/08/31 00:20:38;;;;;;;;;7.00;5.50;;;;;21.91;47.18;101579.34;5056345;28;45333;-80
2022/08/31 00:23:08;;;;;;;;;6.25;5.25;;;;;21.90;47.25;101582.94;5038319;28;45443;-81
2022/08/31 00:25:34;;;;;;;;;6.25;6.25;;;;;21.89;47.01;101576.78;5055933;28;46438;-80
2022/08/31 00:28:01;;;;;;;;;7.00;5.50;;;;;21.88;47.78;101564.50;5038119;28;45924;-80
2022/08/31 00:30:26;;;;;;;;;6.50;5.00;;;;;21.90;47.05;101577.63;5056019;28;45491;-80
2022/08/31 00:32:51;;;;;;;;;5.00;4.25;;;;;21.89;47.42;101578.59;5055798;28;45277;-81
2022/08/31 00:35:17;;;;;;;;;4.00;3.00;;;;;21.84;46.58;101571.78;5055869;28;46071;-81
2022/08/31 00:37:42;;;;;;;;;4.50;4.50;;;;;21.82;46.38;101568.38;5055920;28;45408;-81
2022/08/31 00:40:08;;;;;;;;;4.00;4.00;;;;;21.82;47.95;101571.03;5055492;28;60236;-80
2022/08/31 00:42:34;;;;;;;;;4.25;4.25;;;;;21.80;47.67;101567.63;5037981;28;45635;-81
2022/08/31 00:44:59;;;;;;;;;4.50;4.00;;;;;21.76;47.47;101573.22;5055445;28;46065;-81
2022/08/31 00:47:24;;;;;;;;;7.25;5.00;;;;;21.74;47.81;101578.59;5055866;28;45276;-80
2022/08/31 00:49:50;;;;;;;;;5.50;4.50;;;;;21.68;47.85;101564.91;5055039;28;67012;-80
2022/08/31 00:52:21;;;;;;;;;6.75;4.00;;;;;21.70;47.43;101577.09;5055587;28;45400;-81
2022/08/31 00:54:53;;;;;;;;;4.50;3.25;;;;;21.65;47.23;101571.22;5037744;28;46535;-81
2022/08/31 00:57:19;;;;;;;;;5.50;5.00;;;;;21.67;47.28;101576.44;5037712;28;45489;-80
2022/08/31 00:59:46;;;;;;;;;6.75;5.00;;;;;21.65;46.80;101571.22;5037717;28;45452;-81
2022/08/31 01:02:11;;;;;;;;;7.75;5.00;;;;;21.66;47.62;101580.91;5037887;28;45396;-80
2022/08/31 01:04:38;;;;;;;;;7.00;4.00;;;;;21.64;47.64;101585.44;5054706;28;71260;-81
2022/08/31 01:07:05;;;;;;;;;6.50;4.75;;;;;21.61;47.26;101582.97;5037774;28;45537;-81
2022/08/31 01:09:34;;;;;;;;;5.50;4.00;;;;;21.58;47.48;101589.31;5037646;28;45366;-80
2022/08/31 01:12:00;;;;;;;;;6.00;5.00;;;;;21.56;48.23;101588.56;5037535;28;45333;-81
2022/08/31 01:14:25;;;;;;;;;4.25;3.50;;;;;21.55;47.78;101580.72;5040790;28;45723;-80
2022/08/31 01:16:52;;;;;;;;;4.50;3.50;;;;;21.46;47.37;101575.00;5058534;28;57103;-80
2022/08/31 01:19:28;;;;;;;;;5.00;4.00;;;;;21.50;46.90;101588.09;5041148;28;45234;-81
2022/08/31 01:22:02;;;;;;;;;4.25;4.25;;;;;21.46;47.89;101588.25;5041054;28;45479;-81
2022/08/31 01:24:29;;;;;;;;;5.50;3.50;;;;;21.41;47.38;101576.22;5059104;28;46582;-81
2022/08/31 01:27:01;;;;;;;;;5.25;4.75;;;;;21.42;47.65;101583.22;5040304;28;58147;-81
2022/08/31 01:29:27;;;;;;;;;5.00;5.00;;;;;21.43;47.58;101590.22;5041716;28;45421;-81
2022/08/31 01:31:52;;;;;;;;;8.50;6.00;;;;;21.36;48.18;101583.59;5057790;28;69523;-81
2022/08/31 01:34:17;;;;;;;;;9.50;5.75;;;;;21.33;48.09;101589.09;5057956;28;67893;-80
2022/08/31 01:36:43;;;;;;;;;7.00;5.00;;;;;21.32;48.97;101593.53;5058017;28;64395;-81
2022/08/31 01:39:09;;;;;;;;;4.75;4.75;;;;;21.27;48.78;101596.44;5058818;28;45314;-80
2022/08/31 01:41:40;;;;;;;;;5.25;4.75;;;;;21.22;48.52;101595.88;5058588;28;45262;-81
2022/08/31 01:44:07;;;;;;;;;5.00;4.50;;;;;21.20;49.15;101589.81;5058450;28;46858;-81
2022/08/31 01:46:32;;;;;;;;;4.50;4.50;;;;;21.19;49.40;101589.91;5040651;28;45363;-80
2022/08/31 01:48:58;;;;;;;;;6.25;5.75;;;;;21.18;49.07;101591.72;5058282;28;57233;-80
2022/08/31 01:51:23;;;;;;;;;7.00;4.75;;;;;21.19;49.72;101597.84;5057691;28;57106;-80
2022/08/31 01:53:50;;;;;;;;;6.00;5.00;;;;;21.15;48.98;101596.34;5057984;28;64760;-80
2022/08/31 01:56:21;;;;;;;;;6.00;4.00;;;;;21.12;49.33;101593.84;5040356;28;45227;-80
2022/08/31 01:58:46;;;;;;;;;3.00;3.00;;;;;21.13;48.51;101592.94;5040614;28;45408;-80
2022/08/31 02:01:12;;;;;;;;;5.25;4.00;;;;;21.08;48.74;101585.28;5057649;28;70707;-81
2022/08/31 02:03:37;;;;;;;;;7.00;5.25;;;;;21.06;49.30;101584.50;5057375;28;75597;-80
2022/08/31 02:06:10;;;;;;;;;4.00;3.75;;;;;21.09;48.72;101589.59;5058468;28;45627;-80
2022/08/31 02:08:36;;;;;;;;;5.00;4.75;;;;;21.04;48.57;101589.03;5058420;28;45425;-80
2022/08/31 02:11:02;;;;;;;;;5.75;4.50;;;;;20.99;48.29;101588.47;5058073;28;45460;-80
2022/08/31 02:13:27;;;;;;;;;5.75;5.50;;;;;20.93;48.72;101587.03;5040175;28;46587;-80
2022/08/31 02:15:52;;;;;;;;;4.25;4.25;;;;;20.91;48.95;101591.53;5057172;28;72930;-80
2022/08/31 02:18:18;;;;;;;;;7.25;4.50;;;;;20.88;49.01;101592.59;5058333;28;45432;-81
2022/08/31 02:20:43;;;;;;;;;8.50;5.00;;;;;20.91;49.03;101594.19;5057289;28;70630;-80
2022/08/31 02:23:08;;;;;;;;;8.00;5.00;;;;;20.83;49.41;101581.41;5057446;28;45933;-81
2022/08/31 02:25:34;;;;;;;;;5.25;5.25;;;;;20.88;50.19;101592.59;5057333;28;56192;-80
2022/08/31 02:28:00;;;;;;;;;1.00;1.00;;;;;20.79;49.91;101592.28;5058037;28;45313;-80
2022/08/31 02:30:25;;;;;;;;;4.25;4.25;;;;;20.76;49.83;101603.88;5058170;28;45293;-80
2022/08/31 02:32:50;;;;;;;;;8.00;6.00;;;;;20.64;50.02;101599.31;5056633;28;75060;-80
2022/08/31 02:35:16;;;;;;;;;5.00;5.00;;;;;20.63;50.13;101600.25;5039719;28;45504;-80
2022/08/31 02:37:42;;;;;;;;;5.75;4.50;;;;;20.55;50.49;101598.00;5058020;28;45462;-80
2022/08/31 02:40:08;;;;;;;;;4.00;4.00;;;;;20.57;50.03;101613.81;5056605;28;66987;-80
2022/08/31 02:42:34;;;;;;;;;4.50;4.50;;;;;20.56;50.45;101612.97;5057891;28;46275;-80
2022/08/31 02:44:59;;;;;;;;;5.00;5.00;;;;;20.48;50.27;101610.72;5057599;28;45550;-80
2022/08/31 02:47:26;;;;;;;;;5.00;4.00;;;;;20.47;49.88;101601.09;5057683;28;45304;-79
2022/08/31 02:49:51;;;;;;;;;5.75;4.50;;;;;20.53;50.01;101609.63;5057982;28;45468;-79
2022/08/31 02:52:17;;;;;;;;;5.00;4.00;;;;;20.46;50.82;101606.47;5057410;28;46638;-80
2022/08/31 02:54:42;;;;;;;;;5.75;5.50;;;;;20.49;50.20;101619.53;5056315;28;73157;-80
2022/08/31 02:57:07;;;;;;;;;6.00;4.00;;;;;20.43;50.27;101615.44;5056490;28;67818;-79
2022/08/31 02:59:33;;;;;;;;;4.50;4.50;;;;;20.42;50.28;101618.16;5057683;28;45481;-79
2022/08/31 03:01:58;;;;;;;;;4.00;4.00;;;;;20.35;50.44;101612.34;5039352;28;47328;-80
2022/08/31 03:04:23;;;;;;;;;5.75;4.25;;;;;20.37;50.72;101614.94;5057487;28;45338;-80
2022/08/31 03:06:49;;;;;;;;;6.25;5.50;;;;;20.41;50.40;101614.69;5039559;28;45398;-80
2022/08/31 03:09:14;;;;;;;;;8.00;5.00;;;;;20.38;50.92;101608.72;5056795;28;47930;-80
2022/08/31 03:11:40;;;;;;;;;7.25;5.00;;;;;20.40;50.61;101612.13;5057264;28;45312;-79
2022/08/31 03:14:05;;;;;;;;;5.75;5.25;;;;;20.33;50.50;101606.31;5057361;28;45394;-80
2022/08/31 03:16:45;;;;;;;;;7.75;6.00;;;;;20.34;50.44;101612.44;5039390;28;45321;-80
2022/08/31 03:19:11;;;;;;;;;6.00;6.00;;;;;20.28;50.61;101616.28;5055160;28;45476;-80
2022/08/31 03:21:36;;;;;;;;;6.50;5.00;;;;;20.28;50.76;101621.56;5057068;28;46387;-80
2022/08/31 03:24:01;;;;;;;;;5.00;5.00;;;;;20.23;50.97;101619.19;5038001;28;63841;-80
2022/08/31 03:26:27;;;;;;;;;4.00;4.00;;;;;20.24;50.96;101626.16;5056200;28;62078;-80
2022/08/31 03:28:54;;;;;;;;;5.00;5.00;;;;;20.19;50.63;101611.50;5057191;28;45631;-79
2022/08/31 03:31:20;;;;;;;;;4.75;4.50;;;;;20.14;51.33;101617.06;5056800;28;47137;-79
2022/08/31 03:33:46;;;;;;;;;6.00;5.75;;;;;20.17;51.86;101631.88;5056866;28;45783;-80
2022/08/31 03:36:14;;;;;;;;;6.00;4.50;;;;;20.15;51.91;101616.13;5055865;28;45392;-80
2022/08/31 03:38:39;;;;;;;;;7.25;4.75;;;;;20.09;51.68;101619.09;5056792;28;45286;-80
2022/08/31 03:41:05;;;;;;;;;7.00;5.00;;;;;20.08;51.32;101620.06;5056577;28;52615;-80
2022/08/31 03:43:30;;;;;;;;;5.00;5.00;;;;;20.08;51.73;101626.19;5037743;28;71271;-80
2022/08/31 03:45:55;;;;;;;;;3.50;1.25;;;;;20.04;52.37;101623.78;5055993;28;65078;-79
2022/08/31 03:48:21;;;;;;;;;4.00;4.00;;;;;20.02;51.29;101630.94;5038900;28;45507;-80
2022/08/31 03:50:46;;;;;;;;;5.25;4.75;;;;;19.98;51.58;101624.13;5055379;28;73626;-81
2022/08/31 03:53:11;;;;;;;;;6.00;4.25;;;;;20.03;51.87;101628.22;5056367;28;45417;-81
2022/08/31 03:55:39;;;;;;;;;8.50;5.75;;;;;20.01;51.99;101637.19;5037853;28;63209;-81
2022/08/31 03:58:04;;;;;;;;;5.75;5.00;;;;;19.94;50.89;101623.44;5056571;28;45478;-82
2022/08/31 04:00:30;;;;;;;;;4.25;3.75;;;;;20.00;51.46;101627.53;5056566;28;45389;-81
2022/08/31 04:02:58;;;;;;;;;6.00;6.00;;;;;20.00;52.53;101630.19;5055611;28;69302;-81
2022/08/31 04:05:27;;;;;;;;;4.50;4.50;;;;;19.97;51.76;101628.56;5056640;28;45529;-80
2022/08/31 04:07:52;;;;;;;;;5.25;3.25;;;;;19.98;51.84;101632.06;5056233;28;45307;-81
2022/08/31 04:10:18;;;;;;;;;5.00;5.00;;;;;19.94;52.52;101634.00;5056195;28;45297;-80
2022/08/31 04:12:43;;;;;;;;;4.50;4.50;;;;;19.88;52.04;101632.53;5056294;28;45351;-80
2022/08/31 04:15:09;;;;;;;;;5.00;5.00;;;;;19.87;51.72;101637.91;5055768;28;58566;-81
2022/08/31 04:17:35;;;;;;;;;6.50;5.00;;;;;19.84;52.34;101630.16;5038504;28;45314;-80
2022/08/31 04:20:00;;;;;;;;;5.75;4.25;;;;;19.79;52.82;101635.69;5056276;28;45420;-80
2022/08/31 04:22:26;;;;;;;;;4.00;4.00;;;;;19.72;52.06;101631.63;5036845;28;67450;-80
2022/08/31 04:24:51;;;;;;;;;5.75;5.75;;;;;19.69;52.34;101629.16;5056309;28;45302;-80
2022/08/31 04:27:16;;;;;;;;;5.50;3.75;;;;;19.66;52.26;101626.69;5055361;28;64932;-80
2022/08/31 04:29:42;;;;;;;;;6.75;6.50;;;;;19.68;52.43;101635.38;5055271;28;68991;-80
2022/08/31 04:32:07;;;;;;;;;7.00;4.00;;;;;19.64;52.61;101647.88;5055652;28;47209;-81
2022/08/31 04:34:32;;;;;;;;;6.00;3.50;;;;;19.62;52.70;101644.47;5056120;28;45301;-80
2022/08/31 04:36:58;;;;;;;;;8.25;6.00;;;;;19.60;53.24;101643.69;5054593;28;69546;-80
2022/08/31 04:39:23;;;;;;;;;6.75;5.50;;;;;19.57;52.60;101643.84;5037036;28;70092;-80
2022/08/31 04:41:49;;;;;;;;;7.00;5.50;;;;;19.54;53.27;101638.75;5055775;28;45432;-80
2022/08/31 04:44:14;;;;;;;;;6.00;6.00;;;;;19.57;53.25;101648.28;5056164;28;45467;-81
2022/08/31 04:46:40;;;;;;;;;5.00;5.00;;;;;19.56;53.24;101641.28;5055597;28;45281;-81
2022/08/31 04:49:08;;;;;;;;;5.75;5.75;;;;;19.57;52.72;101641.22;5055573;28;46417;-80
2022/08/31 04:51:34;;;;;;;;;7.75;5.75;;;;;19.57;52.44;101638.56;5055185;28;45613;-80
2022/08/31 04:54:01;;;;;;;;;7.25;5.25;;;;;19.54;52.75;101630.84;5038041;28;45893;-80
2022/08/31 04:56:34;;;;;;;;;8.25;6.75;;;;;19.52;53.42;101644.09;5055987;28;45491;-81
2022/08/31 04:59:05;;;;;;;;;6.50;5.25;;;;;19.46;52.75;101630.34;5037747;28;45599;-80
2022/08/31 05:01:34;;;;;;;;;7.75;5.50;;;;;19.47;52.84;101642.66;5037782;28;45624;-80
2022/08/31 05:04:00;;;;;;;;;5.00;5.00;;;;;19.40;53.63;101622.78;5037892;28;45370;-81
2022/08/31 05:06:29;;;;;;;;;5.00;5.00;;;;;19.39;52.76;101623.69;5037286;28;45594;-80
2022/08/31 05:08:57;;;;;;;;;5.00;4.50;;;;;19.40;53.46;101626.25;5055566;28;46552;-80
2022/08/31 05:11:23;;;;;;;;;6.50;5.00;;;;;19.47;52.82;101637.38;5055268;28;45285;-80
2022/08/31 05:13:49;;;;;;;;;6.00;4.25;;;;;19.43;53.63;101625.25;5037697;28;45428;-80
2022/08/31 05:16:15;;;;;;;;;6.00;6.00;;;;;19.40;53.04;101620.13;5055662;28;45341;-81
2022/08/31 05:18:42;;;;;;;;;5.00;5.00;;;;;19.45;53.17;101642.72;5020666;28;47222;-80
2022/08/31 05:21:28;;;;;;;;;8.25;6.00;;;;;19.43;53.20;101639.31;5037169;28;45370;-80
2022/08/31 05:23:59;;;;;;;;;8.75;7.00;;;;;19.43;53.93;101641.09;5055569;28;45347;-80
2022/08/31 05:26:28;;;;;;;;;8.50;5.75;;;;;19.40;53.44;101639.47;5037422;28;45280;-80
2022/08/31 05:28:54;;;;;;;;;6.00;5.75;;;;;19.34;53.78;101648.53;5037534;28;46549;-80
2022/08/31 05:31:20;;;;;;;;;9.00;6.00;;;;;19.22;53.39;101628.03;5055092;28;45479;-81
2022/08/31 05:33:46;;;;;;;;;8.50;7.00;;;;;19.18;53.42;101639.69;5055024;28;45537;-80
2022/08/31 05:36:11;;;;;;;;;9.75;7.00;;;;;19.11;53.96;101638.28;5037261;28;45557;-80
2022/08/31 05:38:37;;;;;;;;;7.50;7.00;;;;;19.05;53.73;101643.91;5055076;28;46147;-79
2022/08/31 05:41:04;;;;;;;;;8.50;7.75;;;;;19.07;53.98;101648.16;5055142;28;45412;-80
2022/08/31 05:43:30;;;;;;;;;6.50;5.50;;;;;19.09;53.80;101646.31;5055458;28;45410;-80
2022/08/31 05:45:56;;;;;;;;;7.00;6.00;;;;;19.10;54.39;101640.09;5037138;28;45511;-83
2022/08/31 05:48:21;;;;;;;;;7.00;5.00;;;;;19.15;53.97;101638.09;5036771;28;46130;-83
2022/08/31 05:50:46;;;;;;;;;8.00;5.75;;;;;19.19;53.71;101648.50;5053831;28;73751;-83
2022/08/31 05:53:12;;;;;;;;;13.25;5.00;;;;;19.16;54.29;101649.47;5053978;28;68058;-84
2022/08/31 05:55:38;;;;;;;;;8.00;6.00;;;;;19.19;54.59;101653.78;5055275;28;45314;-84
2022/08/31 05:58:04;;;;;;;;;6.00;6.00;;;;;19.22;54.24;101651.81;5020370;28;47325;-83
2022/08/31 06:00:30;;;;;;;;;6.25;5.75;;;;;19.20;53.79;101650.19;5040532;28;45395;-84
2022/08/31 06:02:56;;;;;;;;;7.50;5.25;;;;;19.13;54.31;101650.50;5058833;28;45250;-85
2022/08/31 06:05:22;;;;;;;;;7.00;6.75;;;;;19.22;54.74;101650.94;5040629;28;45432;-85
2022/08/31 06:07:47;;;;;;;;;5.75;3.00;;;;;19.23;54.56;101650.03;5040049;28;55844;-83
2022/08/31 06:10:13;;;;;;;;;9.00;6.00;;;;;19.21;54.80;101639.56;5040356;28;45508;-83
2022/08/31 06:12:41;;;;;;;;;9.00;6.00;;;;;19.30;53.25;101646.16;5040247;28;45265;-82
2022/08/31 06:15:07;;;;;;;;;6.25;5.00;;;;;19.27;53.44;101644.50;5058283;28;45413;-83
2022/08/31 06:17:33;;;;;;;;;7.00;6.25;;;;;19.36;53.86;101648.47;5057769;28;45796;-82
2022/08/31 06:19:59;;;;;;;;;7.00;6.00;;;;;19.36;54.00;101643.19;5040132;28;45810;-82
2022/08/31 06:22:25;;;;;;;;;10.75;7.50;;;;;19.38;53.90;101645.75;5040442;28;45567;-82
2022/08/31 06:24:50;;;;;;;;;8.25;8.25;;;;;19.45;53.52;101653.28;5040333;28;45403;-82
2022/08/31 06:27:16;;;;;;;;;7.25;6.00;;;;;19.43;54.46;101649.03;5040036;28;46890;-83
2022/08/31 06:29:41;;;;;;;;;8.25;7.00;;;;;19.45;53.31;101642.72;5058063;28;45460;-84
2022/08/31 06:32:09;;;;;;;;;6.00;6.00;;;;;19.51;53.67;101658.22;5039296;28;55978;-83
2022/08/31 06:34:36;;;;;;;;;8.00;8.00;;;;;19.48;53.82;101657.53;5040225;28;45257;-82
2022/08/31 06:37:02;;;;;;;;;9.00;8.00;;;;;19.56;53.50;101663.28;5039884;28;46341;-85
2022/08/31 06:39:28;;;;;;;;;6.50;6.00;;;;;19.60;53.61;101653.41;5039968;28;45787;-84
2022/08/31 06:41:54;;;;;;;;;7.00;6.50;;;;;19.66;53.32;101653.94;5039527;28;56062;-84
2022/08/31 06:44:21;;;;;;;;;8.25;7.50;;;;;19.63;52.81;101645.31;5023356;28;45587;-85
2022/08/31 06:46:47;;;;;;;;;7.25;7.00;;;;;19.73;53.32;101659.78;5022782;28;47186;-84
2022/08/31 06:49:12;;;;;;;;;7.25;5.00;;;;;19.75;53.13;101651.78;5039759;28;45271;-84
2022/08/31 06:51:38;;;;;;;;;10.00;7.25;;;;;19.79;53.37;101650.69;5022896;28;45303;-85
2022/08/31 06:54:06;;;;;;;;;5.25;5.25;;;;;19.84;53.28;101656.59;5057845;28;45373;-88
2022/08/31 06:56:32;;;;;;;;;8.00;6.50;;;;;19.85;52.97;101661.75;5039615;28;46779;-86
2022/08/31 06:58:59;;;;;;;;;7.00;7.00;;;;;19.83;53.11;101661.00;5023159;28;45960;-86
2022/08/31 07:01:27;;;;;;;;;7.00;7.00;;;;;19.80;52.87;101665.59;5057538;28;45467;-86
2022/08/31 07:03:54;;;;;;;;;7.75;6.25;;;;;19.81;53.19;101673.44;5057810;28;45467;-87
2022/08/31 07:06:22;;;;;;;;;7.00;5.00;;;;;19.85;53.59;101672.31;5039687;28;46377;-87
2022/08/31 07:08:50;;;;;;;;;9.00;5.75;;;;;19.89;53.34;101673.91;5057489;28;45850;-87
2022/08/31 07:11:22;;;;;;;;;5.00;5.00;;;;;19.96;53.20;101668.28;5039759;28;45326;-87
2022/08/31 07:13:48;;;;;;;;;9.50;7.00;;;;;19.98;53.26;101671.69;5023107;28;45550;-87
2022/08/31 07:16:16;;;;;;;;;3.75;3.00;;;;;20.04;52.87;101666.94;5039369;28;46364;-87
2022/08/31 07:18:42;;;;;;;;;7.00;6.25;;;;;20.10;52.71;101666.59;5039693;28;45948;-87
2022/08/31 07:21:17;;;;;;;;;7.00;6.75;;;;;20.14;52.30;101667.28;5057757;28;45356;-87
2022/08/31 07:23:43;;;;;;;;;7.00;5.75;;;;;20.19;52.35;101667.91;5022953;28;45330;-87
2022/08/31 07:26:15;;;;;;;;;9.25;7.00;;;;;20.23;51.85;101664.13;5039375;28;46440;-87
2022/08/31 07:28:42;;;;;;;;;10.75;6.25;;;;;20.28;52.00;101663.88;5039501;28;45467;-87
2022/08/31 07:31:07;;;;;;;;;8.75;7.00;;;;;20.33;51.96;101663.63;5039364;28;45357;-87
2022/08/31 07:33:40;;;;;;;;;8.25;7.00;;;;;20.34;51.72;101666.19;5039391;28;45334;-87
2022/08/31 07:36:11;;;;;;;;;7.00;7.00;;;;;20.40;51.53;101665.00;5040116;28;46376;-87
2022/08/31 07:44:22;;;;;;;;;7.25;7.00;;;;;20.48;51.51;101668.91;5014550;28;45271;-87
2022/08/31 07:46:48;;;;;;;;;8.00;6.00;;;;;20.52;52.06;101674.03;4998203;28;45659;-87
2022/08/31 07:49:14;;;;;;;;;3.00;3.00;;;;;20.50;51.43;101660.88;4998169;28;45279;-87
2022/08/31 07:51:49;;;;;;;;;8.25;7.75;;;;;20.57;52.19;101659.59;4997997;28;45450;-87
2022/08/31 07:54:21;;;;;;;;;10.00;6.75;;;;;20.64;51.06;101668.09;4999253;28;45524;-87
2022/08/31 07:56:50;;;;;;;;;11.25;7.50;;;;;20.70;51.94;101673.03;4998169;28;46562;-87
2022/08/31 07:59:20;;;;;;;;;9.00;7.75;;;;;20.77;51.42;101671.75;4997749;28;45402;-87
2022/08/31 08:01:47;;;;;;;;;9.25;7.50;;;;;20.79;51.04;101658.44;4998261;28;45566;-87
2022/08/31 08:04:17;;;;;;;;;9.25;7.50;;;;;20.88;51.29;101665.84;5014975;28;45390;-87
2022/08/31 08:06:42;;;;;;;;;10.25;7.75;;;;;20.94;50.68;101660.19;5014540;28;47345;-87
2022/08/31 08:09:10;;;;;;;;;7.00;7.00;;;;;20.98;50.50;101664.34;5014374;28;45441;-87
2022/08/31 08:11:36;;;;;;;;;6.50;6.50;;;;;21.01;50.59;101661.53;5014508;28;45267;-87
2022/08/31 08:14:05;;;;;;;;;12.75;9.75;;;;;21.07;50.52;101663.81;4997714;28;45360;-87
2022/08/31 08:16:31;;;;;;;;;9.75;7.50;;;;;21.12;50.36;101665.34;4997818;28;45645;-88
2022/08/31 08:18:57;;;;;;;;;8.00;8.00;;;;;21.12;50.34;101666.22;5001935;28;45422;-87
2022/08/31 08:21:23;;;;;;;;;8.00;8.00;;;;;21.16;49.94;101654.50;5038190;28;45398;-87
2022/08/31 08:23:49;;;;;;;;;8.25;8.00;;;;;21.21;49.76;101656.84;5056484;28;45409;-87
2022/08/31 08:26:14;;;;;;;;;10.25;7.25;;;;;21.23;49.74;101647.03;5037905;28;62178;-87
2022/08/31 08:28:39;;;;;;;;;10.00;8.00;;;;;21.27;50.20;101644.09;5056113;28;45445;-87
2022/08/31 08:31:06;;;;;;;;;9.25;8.25;;;;;21.37;50.46;101646.22;5055525;28;65351;-87
2022/08/31 08:33:33;;;;;;;;;11.00;9.00;;;;;21.40;49.72;101644.22;5051802;28;45429;-87
2022/08/31 08:36:02;;;;;;;;;9.50;9.00;;;;;21.43;49.43;101644.06;5067045;27;48239;-87
2022/08/31 08:38:29;;;;;;;;;8.75;7.50;;;;;21.49;49.66;101647.28;5021765;28;45444;-87
2022/08/31 08:40:56;;;;;;;;;9.25;7.25;;;;;21.55;49.98;101637.19;5038603;28;45367;-87
2022/08/31 08:43:27;;;;;;;;;6.75;6.00;;;;;21.65;50.13;101642.75;5021289;28;45543;-87
2022/08/31 08:45:54;;;;;;;;;10.50;9.50;;;;;21.75;50.40;101648.34;5037992;28;47181;-87
2022/08/31 08:48:23;;;;;;;;;8.00;8.00;;;;;21.83;49.67;101644.28;5038030;28;45823;-87
2022/08/31 08:50:51;;;;;;;;;9.25;8.75;;;;;21.89;49.67;101643.03;5038090;28;45459;-87
2022/08/31 08:53:20;;;;;;;;;8.00;7.75;;;;;21.94;50.21;101638.31;5038570;28;45467;-87
2022/08/31 08:55:46;;;;;;;;;8.00;8.00;;;;;22.01;49.00;101636.13;5037897;28;46438;-87
2022/08/31 08:58:12;;;;;;;;;8.50;8.50;;;;;22.07;48.75;101637.56;5055735;28;45376;-87
2022/08/31 09:00:37;;;;;;;;;11.25;9.75;;;;;22.10;49.33;101635.56;5038259;28;45269;-87
2022/08/31 09:03:23;;;;;;;;;12.75;9.25;;;;;22.14;48.92;101630.88;5038273;28;45503;-87
2022/08/31 09:05:51;;;;;;;;;7.00;7.00;;;;;22.21;48.59;101638.38;5055923;28;45554;-87
2022/08/31 09:08:42;;;;;;;;;9.50;9.00;;;;;22.30;48.38;101633.44;5055732;28;45801;-87
2022/08/31 09:11:22;;;;;;;;;8.00;8.00;;;;;22.38;48.34;101625.84;5055603;28;45402;-86
2022/08/31 09:13:52;;;;;;;;;12.25;8.75;;;;;22.47;48.28;101627.06;5038049;28;45638;-87
2022/08/31 09:16:35;;;;;;;;;11.75;7.50;;;;;22.55;47.88;101627.41;5055790;28;45640;-87
2022/08/31 09:19:04;;;;;;;;;12.00;9.00;;;;;22.63;48.14;101627.75;5038280;28;45355;-88
2022/08/31 09:21:35;;;;;;;;;8.50;7.50;;;;;22.72;47.82;101631.63;5055912;28;45417;-87
2022/08/31 09:24:19;;;;;;;;;8.75;8.00;;;;;22.77;47.48;101616.22;5037857;28;45384;-87
2022/08/31 09:27:18;;;;;;;;;9.25;8.00;;;;;22.86;47.41;101618.25;5037254;28;47863;-87
2022/08/31 09:29:54;;;;;;;;;8.50;6.75;;;;;22.96;46.93;101613.19;5032225;28;45423;-87
2022/08/31 09:32:30;;;;;;;;;10.00;8.00;;;;;23.06;46.79;101611.63;5037638;28;45303;-87
2022/08/31 09:35:01;;;;;;;;;9.50;6.50;;;;;23.10;46.42;101609.63;5040626;28;45592;-87
2022/08/31 09:37:32;;;;;;;;;7.00;7.00;;;;;23.16;46.28;101607.41;5058650;28;45387;-87
2022/08/31 09:40:22;;;;;;;;;8.50;8.50;;;;;23.26;46.24;101606.78;5024474;28;45874;-86
2022/08/31 09:43:01;;;;;;;;;10.75;8.25;;;;;23.35;46.21;101601.69;5041307;28;45464;-87
2022/08/31 09:45:34;;;;;;;;;8.00;7.25;;;;;23.44;46.06;101601.97;5041173;28;45449;-87
2022/08/31 09:48:00;;;;;;;;;6.25;6.25;;;;;23.53;45.76;101607.53;5025145;28;47059;-86
2022/08/31 09:50:32;;;;;;;;;9.50;7.25;;;;;23.58;45.26;101604.53;5040979;28;45390;-86
2022/08/31 09:56:15;;;;;;;;;9.00;7.00;;;;;23.69;45.19;101604.63;5043302;28;45298;-87
2022/08/31 09:58:49;;;;;;;;;6.00;6.00;;;;;23.73;45.07;101600.78;5058574;28;46719;-87
2022/08/31 10:01:21;;;;;;;;;8.25;8.00;;;;;23.79;44.89;101599.53;5023998;28;46001;-87
2022/08/31 10:03:48;;;;;;;;;8.50;6.75;;;;;23.88;44.67;101592.72;5024308;28;45447;-87
2022/08/31 10:06:24;;;;;;;;;6.75;6.75;;;;;23.98;44.97;101592.88;5040795;28;45318;-87
2022/08/31 10:08:56;;;;;;;;;8.00;8.00;;;;;24.04;45.11;101593.31;5040698;28;47391;-87
2022/08/31 10:11:25;;;;;;;;;9.25;7.25;;;;;24.10;44.46;101574.22;5040882;28;45811;-86
2022/08/31 10:14:05;;;;;;;;;6.75;6.75;;;;;24.22;44.13;101568.97;5040792;28;45427;-87
2022/08/31 10:16:41;;;;;;;;;9.75;9.50;;;;;24.28;44.36;101564.06;5040536;28;45441;-87
2022/08/31 10:19:10;;;;;;;;;9.25;7.25;;;;;24.44;43.94;101574.44;5023910;28;47994;-87
2022/08/31 10:21:44;;;;;;;;;8.75;7.00;;;;;24.54;44.05;101563.97;5040321;28;45672;-87
2022/08/31 10:24:32;;;;;;;;;8.00;6.75;;;;;24.69;43.70;101559.31;5040237;28;45390;-87
2022/08/31 10:27:13;;;;;;;;;10.25;8.75;;;;;24.78;43.28;101561.28;5040671;28;45401;-87
2022/08/31 10:29:58;;;;;;;;;8.00;7.75;;;;;24.86;43.54;101556.19;5040422;28;45642;-87
2022/08/31 10:32:31;;;;;;;;;9.00;6.25;;;;;24.96;42.84;101558.16;5020083;28;46263;-87
2022/08/31 10:35:04;;;;;;;;;8.00;7.00;;;;;25.06;42.57;101559.16;5020213;28;45333;-87
2022/08/31 10:37:48;;;;;;;;;9.25;7.00;;;;;25.14;42.57;101563.88;5020435;28;45484;-86
2022/08/31 10:40:30;;;;;;;;;8.50;7.50;;;;;25.19;42.36;101565.22;5003674;28;47430;-87
2022/08/31 10:43:20;;;;;;;;;7.00;7.00;;;;;25.30;42.24;101565.25;5004054;28;45775;-88
2022/08/31 10:45:48;;;;;;;;;7.75;6.25;;;;;25.42;42.08;101571.44;5020275;28;45440;-87
2022/08/31 10:48:16;;;;;;;;;6.75;6.00;;;;;25.46;41.86;101554.25;5038723;28;45453;-87
2022/08/31 10:50:48;;;;;;;;;9.25;7.00;;;;;25.61;42.29;101559.31;5014165;28;47087;-87
2022/08/31 10:53:21;;;;;;;;;10.75;8.00;;;;;25.75;41.66;101552.88;5032779;28;45677;-87
2022/08/31 10:56:35;;;;;;;;;9.00;6.75;;;;;25.87;41.52;101559.88;5021121;28;45339;-88
2022/08/31 10:59:26;;;;;;;;;9.75;8.00;;;;;25.99;41.49;101558.91;5036835;28;45525;-88
2022/08/31 11:01:55;;;;;;;;;8.25;6.00;;;;;26.14;40.95;101556.81;5036518;28;46587;-87
2022/08/31 11:04:38;;;;;;;;;7.50;6.75;;;;;26.30;40.78;101552.88;5019962;28;45812;-88
2022/08/31 11:07:19;;;;;;;;;7.50;6.25;;;;;26.49;40.77;101554.88;5037334;28;45420;-88
2022/08/31 11:10:18;;;;;;;;;6.25;6.25;;;;;26.61;40.42;101538.69;5020042;28;45313;-88
2022/08/31 11:12:51;;;;;;;;;8.00;7.00;;;;;26.86;40.08;101539.28;5037162;28;46787;-87
2022/08/31 11:15:29;;;;;;;;;8.75;6.25;;;;;27.07;39.48;101546.44;5019937;28;45786;-86
2022/08/31 11:18:24;;;;;;;;;9.00;7.50;;;;;27.22;39.05;101542.41;5037584;28;45328;-87
2022/08/31 11:21:11;;;;;;;;;9.00;7.00;;;;;27.45;38.63;101536.91;4937085;28;45780;-88
2022/08/31 11:24:19;;;;;;;;;6.75;6.75;;;;;27.68;38.43;101542.91;4936439;28;47296;-88
2022/08/31 11:27:10;;;;;;;;;8.00;7.50;;;;;27.90;38.39;101541.88;4930018;28;45763;-88
2022/08/31 11:29:55;;;;;;;;;7.25;6.25;;;;;28.18;36.99;101532.19;4937191;28;45420;-88
2022/08/31 11:32:27;;;;;;;;;7.50;6.75;;;;;28.39;37.04;101540.91;4943613;28;45595;-88
2022/08/31 11:34:56;;;;;;;;;10.75;8.00;;;;;28.67;37.30;101543.72;4956149;28;45538;-88
2022/08/31 11:37:55;;;;;;;;;12.75;8.00;;;;;30.01;36.46;101544.31;4939442;28;45654;-88
2022/08/31 11:40:57;;;;;;;;;10.00;6.50;;;;;33.61;32.37;101537.44;4956317;28;45260;-88
2022/08/31 11:43:31;;;;;;;;;8.00;6.00;;;;;36.42;29.26;101534.25;4921360;28;45563;-88
2022/08/31 11:46:18;;;;;;;;;5.50;5.25;;;;;38.07;26.00;101539.88;4955766;28;46848;-88
2022/08/31 11:48:53;;;;;;;;;9.00;6.00;;;;;39.99;24.81;101532.28;4943749;28;45393;-88